createdAt,value
2019-01-18T00:01:40.638Z,81.13
2019-01-18T00:04:45.778Z,80.45
2019-01-18T00:07:50.896Z,80.83
2019-01-18T00:10:55.998Z,81.13
2019-01-18T00:14:01.158Z,81.01
2019-01-18T00:17:06.277Z,81.15
2019-01-18T00:20:11.462Z,81.02
2019-01-18T00:23:16.608Z,81.19
2019-01-18T00:26:21.660Z,81.54
2019-01-18T00:29:29.730Z,81.29
2019-01-18T00:32:33.629Z,81.12
2019-01-18T00:35:38.763Z,80.26
2019-01-18T00:38:45.488Z,80.71
2019-01-18T00:41:50.653Z,79.77
2019-01-18T00:44:55.855Z,79.38
2019-01-18T00:48:00.957Z,79.93
2019-01-18T00:51:06.096Z,79.65
2019-01-18T00:54:11.185Z,80.31
2019-01-18T00:57:17.245Z,80.10
2019-01-18T01:00:25.149Z,80.59
2019-01-18T01:03:30.287Z,80.83
2019-01-18T01:06:36.473Z,80.27
2019-01-18T01:09:41.680Z,79.92
2019-01-18T01:12:46.876Z,80.90
2019-01-18T01:15:51.961Z,81.33
2019-01-18T01:18:57.144Z,81.34
2019-01-18T01:22:02.303Z,80.03
2019-01-18T01:25:08.041Z,78.80
2019-01-18T01:28:13.297Z,79.58
2019-01-18T01:31:18.600Z,79.64
2019-01-18T01:34:23.751Z,79.72
2019-01-18T01:37:28.894Z,79.64
2019-01-18T01:40:34.185Z,80.47
2019-01-18T01:43:39.285Z,79.80
2019-01-18T01:46:44.386Z,80.59
2019-01-18T01:49:49.557Z,80.44
2019-01-18T01:52:55.496Z,80.95
2019-01-18T01:56:00.586Z,80.95
2019-01-18T01:59:05.705Z,80.63
2019-01-18T02:02:10.831Z,80.30
2019-01-18T02:05:19.677Z,81.97
2019-01-18T02:08:24.983Z,82.02
2019-01-18T02:11:30.239Z,82.14
2019-01-18T02:14:35.315Z,80.86
2019-01-18T02:17:40.553Z,80.57
2019-01-18T02:20:45.662Z,80.22
2019-01-18T02:23:50.803Z,80.93
2019-01-18T02:26:55.906Z,81.71
2019-01-18T02:30:01.686Z,81.98
2019-01-18T02:33:08.006Z,82.52
2019-01-18T02:36:13.109Z,81.52
2019-01-18T02:39:18.225Z,80.25
2019-01-18T02:42:23.381Z,80.45
2019-01-18T02:45:28.573Z,81.46
2019-01-18T02:48:33.763Z,81.45
2019-01-18T02:51:38.948Z,80.37
2019-01-18T02:54:44.094Z,79.91
2019-01-18T02:57:49.244Z,81.06
2019-01-18T03:00:54.369Z,80.76
2019-01-18T03:03:59.470Z,82.12
2019-01-18T03:07:04.701Z,80.23
2019-01-18T03:10:14.783Z,79.58
2019-01-18T03:13:19.915Z,79.68
2019-01-18T03:16:25.002Z,81.22
2019-01-18T03:19:30.156Z,81.36
2019-01-18T03:22:35.276Z,82.50
2019-01-18T03:25:40.369Z,82.12
2019-01-18T03:28:45.417Z,82.57
2019-01-18T03:31:50.571Z,81.54
2019-01-18T03:34:55.716Z,82.02
2019-01-18T03:38:00.845Z,82.12
2019-01-18T03:41:06.023Z,82.46
2019-01-18T03:44:11.144Z,83.00
2019-01-18T03:47:16.213Z,83.80
2019-01-18T03:50:23.602Z,83.05
2019-01-18T03:53:28.680Z,84.18
2019-01-18T03:56:33.842Z,83.46
2019-01-18T03:59:38.974Z,83.88
2019-01-18T04:02:44.095Z,84.19
2019-01-18T04:05:49.281Z,83.87
2019-01-18T04:08:54.407Z,84.61
2019-01-18T04:12:03.513Z,84.60
2019-01-18T04:15:12.085Z,84.09
2019-01-18T04:18:17.221Z,84.00
2019-01-18T04:21:22.386Z,83.55
2019-01-18T04:24:27.500Z,82.65
2019-01-18T04:27:32.634Z,82.16
2019-01-18T04:30:37.814Z,83.43
2019-01-18T04:33:42.960Z,83.19
2019-01-18T04:36:48.068Z,83.36
2019-01-18T04:39:53.269Z,83.13
2019-01-18T04:42:58.518Z,82.37
2019-01-18T04:46:04.586Z,82.71
2019-01-18T04:49:09.721Z,82.12
2019-01-18T04:52:14.806Z,82.34
2019-01-18T04:55:20.036Z,81.46
2019-01-18T04:58:26.584Z,82.20
2019-01-18T05:01:31.829Z,83.32
2019-01-18T05:04:37.161Z,84.20
2019-01-18T05:07:42.280Z,82.50
2019-01-18T05:10:47.403Z,82.54
2019-01-18T05:13:52.560Z,81.93
2019-01-18T05:16:57.672Z,81.62
2019-01-18T05:20:02.797Z,79.78
2019-01-18T05:23:07.909Z,80.04
2019-01-18T05:26:13.112Z,79.97
2019-01-18T05:29:18.352Z,80.09
2019-01-18T05:32:23.470Z,80.60
2019-01-18T05:35:28.809Z,81.65
2019-01-18T05:38:33.934Z,81.96
2019-01-18T05:41:39.034Z,83.45
2019-01-18T05:44:44.187Z,83.18
2019-01-18T05:47:49.244Z,82.86
2019-01-18T05:50:54.425Z,83.91
2019-01-18T05:54:01.655Z,83.98
2019-01-18T05:57:06.817Z,84.61
2019-01-18T06:00:20.128Z,84.95
2019-01-18T06:03:25.224Z,85.80
2019-01-18T06:06:30.347Z,86.56
2019-01-18T06:09:35.532Z,85.39
2019-01-18T06:12:40.698Z,85.46
2019-01-18T06:15:45.812Z,85.48
2019-01-18T06:18:50.998Z,85.29
2019-01-18T06:21:56.098Z,86.45
2019-01-18T06:25:01.243Z,86.08
2019-01-18T06:28:06.323Z,86.05
2019-01-18T06:31:11.435Z,86.99
2019-01-18T06:34:16.548Z,87.62
2019-01-18T06:37:21.672Z,87.76
2019-01-18T06:40:26.854Z,87.42
2019-01-18T06:43:32.002Z,87.32
2019-01-18T06:46:37.145Z,85.39
2019-01-18T06:49:42.243Z,85.87
2019-01-18T06:52:47.343Z,85.75
2019-01-18T06:55:52.410Z,85.83
2019-01-18T06:58:57.578Z,85.17
2019-01-18T07:02:02.662Z,86.08
2019-01-18T07:05:08.477Z,87.60
2019-01-18T07:08:13.544Z,88.04
2019-01-18T07:11:18.709Z,88.68
2019-01-18T07:14:23.812Z,90.10
2019-01-18T07:17:28.897Z,91.06
2019-01-18T07:20:34.121Z,91.91
2019-01-18T07:23:39.250Z,92.84
2019-01-18T07:26:44.422Z,93.65
2019-01-18T07:29:50.493Z,94.16
2019-01-18T07:32:55.656Z,94.35
2019-01-18T07:36:00.837Z,94.28
2019-01-18T07:39:08.218Z,94.23
2019-01-18T07:42:14.313Z,94.34
2019-01-18T07:45:22.129Z,92.72
2019-01-18T07:48:27.265Z,92.00
2019-01-18T07:51:32.369Z,91.57
2019-01-18T07:54:37.467Z,90.53
2019-01-18T07:57:42.583Z,87.89
2019-01-18T08:00:47.727Z,88.31
2019-01-18T08:03:52.805Z,89.07
2019-01-18T08:06:57.899Z,89.55
2019-01-18T08:10:02.988Z,90.21
2019-01-18T08:13:08.151Z,91.09
2019-01-18T08:16:13.213Z,91.61
2019-01-18T08:19:18.417Z,91.44
2019-01-18T08:22:23.509Z,91.19
2019-01-18T08:25:28.663Z,90.10
2019-01-18T08:28:33.751Z,88.91
2019-01-18T08:31:39.053Z,87.53
2019-01-18T08:34:44.686Z,87.17
2019-01-18T08:37:49.931Z,86.22
2019-01-18T08:40:55.083Z,86.41
2019-01-18T08:44:01.293Z,86.67
2019-01-18T08:47:06.418Z,86.74
2019-01-18T08:50:13.699Z,84.96
2019-01-18T08:53:18.816Z,79.30
2019-01-18T08:56:24.139Z,79.79
2019-01-18T08:59:29.233Z,79.57
2019-01-18T09:02:34.360Z,79.81
2019-01-18T09:05:39.539Z,79.23
2019-01-18T09:08:44.696Z,79.67
2019-01-18T09:11:49.939Z,79.13
2019-01-18T09:14:55.055Z,79.82
2019-01-18T09:18:00.254Z,81.12
2019-01-18T09:21:05.376Z,81.26
2019-01-18T09:24:10.570Z,81.59
2019-01-18T09:27:15.687Z,82.00
2019-01-18T09:30:22.709Z,84.44
2019-01-18T09:33:27.829Z,84.93
2019-01-18T09:36:32.988Z,85.76
2019-01-18T09:39:38.216Z,85.33
2019-01-18T09:42:43.349Z,85.57
2019-01-18T09:45:48.566Z,85.29
2019-01-18T09:48:53.672Z,86.00
2019-01-18T09:51:58.824Z,85.78
2019-01-18T09:55:04.435Z,84.68
2019-01-18T09:58:09.663Z,85.39
2019-01-18T10:01:14.799Z,85.23
2019-01-18T10:04:19.920Z,85.28
2019-01-18T10:07:25.081Z,85.92
2019-01-18T10:10:30.200Z,86.66
2019-01-18T10:13:35.296Z,82.61
2019-01-18T10:16:40.439Z,79.44
2019-01-18T10:19:45.526Z,77.85
2019-01-18T10:22:51.008Z,75.23
2019-01-18T10:25:56.137Z,72.54
2019-01-18T10:29:01.294Z,71.22
2019-01-18T10:32:06.396Z,70.69
2019-01-18T10:35:11.515Z,69.71
2019-01-18T10:38:16.614Z,66.46
2019-01-18T10:41:21.743Z,65.51
2019-01-18T10:44:26.894Z,64.52
2019-01-18T10:47:32.046Z,62.98
2019-01-18T10:50:37.279Z,55.79
2019-01-18T10:53:42.387Z,59.23
2019-01-18T10:56:47.572Z,62.96
2019-01-18T10:59:52.816Z,61.05
2019-01-18T11:02:57.850Z,59.98
2019-01-18T11:06:02.971Z,62.65
2019-01-18T11:09:09.920Z,61.00
2019-01-18T11:12:15.096Z,57.17
2019-01-18T11:15:22.096Z,58.18
2019-01-18T11:18:27.349Z,56.24
2019-01-18T11:21:32.729Z,56.49
2019-01-18T11:24:37.804Z,56.93
2019-01-18T11:27:42.992Z,54.13
2019-01-18T11:30:48.134Z,52.87
2019-01-18T11:33:53.336Z,55.41
2019-01-18T11:36:58.413Z,54.60
2019-01-18T11:40:03.572Z,54.56
2019-01-18T11:43:08.674Z,56.19
2019-01-18T11:46:13.845Z,56.26
2019-01-18T11:49:18.952Z,57.48
2019-01-18T11:52:24.089Z,56.73
2019-01-18T11:55:29.257Z,57.23
2019-01-18T11:58:35.257Z,57.75
2019-01-18T12:01:41.438Z,57.05
2019-01-18T12:04:46.571Z,55.77
2019-01-18T12:07:51.811Z,59.07
2019-01-18T12:10:56.912Z,58.00
2019-01-18T12:14:01.994Z,60.18
2019-01-18T12:17:07.175Z,60.53
2019-01-18T12:20:15.027Z,62.29
2019-01-18T12:23:20.250Z,60.30
2019-01-18T12:26:25.490Z,62.12
2019-01-18T12:29:30.592Z,61.81
2019-01-18T12:32:35.689Z,62.85
2019-01-18T12:35:40.827Z,62.36
2019-01-18T12:38:45.988Z,63.52
2019-01-18T12:41:51.146Z,61.93
2019-01-18T12:44:56.272Z,60.74
2019-01-18T12:48:01.439Z,60.12
2019-01-18T12:51:06.553Z,58.31
2019-01-18T12:54:11.675Z,58.31
2019-01-18T12:57:16.801Z,56.25
2019-01-18T13:00:22.810Z,56.78
2019-01-18T13:03:28.032Z,56.39
2019-01-18T13:06:33.242Z,56.52
2019-01-18T13:09:38.364Z,54.44
2019-01-18T13:12:43.462Z,56.58
2019-01-18T13:16:05.363Z,56.98
2019-01-18T13:19:21.846Z,56.23
2019-01-18T13:22:26.966Z,56.80
2019-01-18T13:25:32.128Z,57.55
2019-01-18T13:28:37.263Z,59.57
2019-01-18T13:31:42.407Z,62.18
2019-01-18T13:34:47.556Z,62.62
2019-01-18T13:37:52.695Z,66.01
2019-01-18T13:40:57.841Z,65.44
2019-01-18T13:44:02.993Z,66.31
2019-01-18T13:47:08.160Z,61.78
2019-01-18T13:50:15.369Z,65.42
2019-01-18T13:53:20.617Z,67.47
2019-01-18T13:56:30.602Z,67.48
2019-01-18T13:59:37.424Z,66.60
2019-01-18T14:02:48.182Z,66.89
2019-01-18T14:05:49.362Z,68.08
2019-01-18T14:08:55.928Z,69.89
2019-01-18T14:12:01.141Z,70.71
2019-01-18T14:15:07.185Z,71.98
2019-01-18T14:18:13.672Z,73.26
2019-01-18T14:21:18.868Z,73.80
2019-01-18T14:24:24.026Z,75.37
2019-01-18T14:27:29.185Z,76.50
2019-01-18T14:30:35.774Z,77.23
2019-01-18T14:33:41.099Z,77.87
2019-01-18T14:36:46.187Z,78.62
2019-01-18T14:39:51.371Z,78.42
2019-01-18T14:42:56.511Z,79.51
2019-01-18T14:46:01.694Z,80.13
2019-01-18T14:49:07.856Z,79.06
2019-01-18T14:52:13.100Z,80.04
2019-01-18T14:55:18.835Z,79.73
2019-01-18T14:58:24.698Z,80.18
2019-01-18T15:01:29.825Z,80.16
2019-01-18T15:04:35.011Z,80.63
2019-01-18T15:07:40.268Z,81.18
2019-01-18T15:10:45.427Z,82.61
2019-01-18T15:13:50.555Z,83.39
2019-01-18T15:16:55.705Z,83.89
2019-01-18T15:20:00.796Z,84.14
2019-01-18T15:23:06.484Z,83.54
2019-01-18T15:26:11.607Z,83.49
2019-01-18T15:29:16.759Z,84.16
2019-01-18T15:32:21.960Z,84.74
2019-01-18T15:35:29.611Z,85.45
2019-01-18T15:38:34.958Z,85.96
2019-01-18T15:41:40.084Z,86.32
2019-01-18T15:44:45.164Z,85.79
2019-01-18T15:47:50.412Z,84.23
2019-01-18T15:50:55.550Z,84.88
2019-01-18T15:54:00.686Z,85.11
2019-01-18T15:57:05.849Z,84.38
2019-01-18T16:00:16.100Z,84.72
2019-01-18T16:03:21.352Z,86.75
2019-01-18T16:06:26.509Z,87.45
2019-01-18T16:09:31.715Z,88.49
2019-01-18T16:12:36.892Z,88.72
2019-01-18T16:16:05.802Z,88.63
2019-01-18T16:19:10.952Z,88.74
2019-01-18T16:22:16.165Z,88.57
2019-01-18T16:25:24.084Z,88.56
2019-01-18T16:28:29.232Z,89.31
2019-01-18T16:31:34.443Z,89.34
2019-01-18T16:34:39.590Z,89.26
2019-01-18T16:37:45.413Z,89.05
2019-01-18T16:40:50.601Z,89.71
2019-01-18T16:43:55.663Z,90.25
2019-01-18T16:47:00.812Z,90.15
2019-01-18T16:50:07.802Z,90.63
2019-01-18T16:53:12.947Z,91.12
2019-01-18T16:56:18.025Z,90.94
2019-01-18T16:59:23.154Z,91.30
2019-01-18T17:02:28.286Z,91.43
2019-01-18T17:05:33.451Z,91.49
2019-01-18T17:08:38.660Z,92.16
2019-01-18T17:11:43.858Z,92.26
2019-01-18T17:14:49.018Z,92.12
2019-01-18T17:17:54.236Z,92.05
2019-01-18T17:20:59.421Z,92.20
2019-01-18T17:24:04.884Z,92.55
2019-01-18T17:27:10.015Z,92.69
2019-01-18T17:30:17.282Z,93.31
2019-01-18T17:33:22.402Z,92.80
2019-01-18T17:36:41.889Z,93.17
2019-01-18T17:40:09.194Z,93.70
2019-01-18T17:43:52.013Z,94.04
2019-01-18T17:47:19.708Z,93.87
2019-01-18T17:51:01.825Z,93.94
2019-01-18T17:54:29.851Z,94.10
2019-01-18T17:58:06.928Z,94.21
2019-01-18T18:01:42.303Z,94.10
2019-01-18T18:05:33.635Z,94.22
2019-01-18T18:09:00.021Z,94.25
2019-01-18T18:12:37.999Z,94.07
2019-01-18T18:16:11.532Z,93.95
2019-01-18T18:19:50.884Z,94.19
2019-01-18T18:23:48.099Z,94.50
2019-01-18T18:27:36.671Z,94.38
2019-01-18T18:30:59.377Z,93.86
2019-01-18T18:34:50.575Z,94.05
2019-01-18T18:38:50.823Z,93.88
2019-01-18T18:42:28.434Z,94.15
2019-01-18T18:46:12.446Z,94.68
2019-01-18T18:49:34.982Z,94.57
2019-01-18T18:53:13.719Z,94.72
2019-01-18T18:57:18.148Z,94.73
2019-01-18T19:01:09.095Z,94.90
2019-01-18T19:04:33.430Z,94.80
2019-01-18T19:08:22.544Z,94.59
2019-01-18T19:11:58.995Z,94.54
2019-01-18T19:15:52.918Z,93.48
2019-01-18T19:19:54.102Z,93.17
2019-01-18T19:23:39.415Z,93.36
2019-01-18T19:27:18.668Z,93.12
2019-01-18T19:30:51.961Z,93.58
2019-01-18T19:34:41.056Z,94.01
2019-01-18T19:38:33.438Z,94.34
2019-01-18T19:42:06.108Z,94.16
2019-01-18T19:45:41.395Z,94.36
2019-01-18T19:49:38.288Z,94.86
2019-01-18T19:53:30.903Z,94.81
2019-01-18T19:57:07.074Z,94.74
2019-01-18T20:01:02.121Z,94.86
2019-01-18T20:04:59.484Z,95.31
2019-01-18T20:08:32.968Z,95.26
2019-01-18T20:12:19.860Z,95.49
2019-01-18T20:16:06.720Z,95.62
2019-01-18T20:19:25.678Z,95.70
2019-01-18T20:23:10.745Z,95.93
2019-01-18T20:27:10.951Z,95.69
2019-01-18T20:30:39.258Z,95.65
2019-01-18T20:34:18.319Z,95.27
2019-01-18T20:37:30.734Z,95.44
2019-01-18T20:41:23.035Z,95.17
2019-01-18T20:45:10.998Z,95.00
2019-01-18T20:49:12.551Z,94.89
2019-01-18T20:52:52.623Z,94.77
2019-01-18T20:56:36.614Z,94.70
2019-01-18T21:00:28.010Z,94.70
2019-01-18T21:04:29.137Z,94.57
2019-01-18T21:07:57.443Z,94.25
2019-01-18T21:11:27.634Z,94.18
2019-01-18T21:14:48.052Z,94.27
2019-01-18T21:18:39.383Z,94.28
2019-01-18T21:22:09.027Z,94.20
2019-01-18T21:25:49.813Z,94.21
2019-01-18T21:29:28.516Z,94.69
2019-01-18T21:33:10.648Z,94.77
2019-01-18T21:36:53.834Z,94.61
2019-01-18T21:40:30.345Z,95.26
2019-01-18T21:44:19.492Z,95.02
2019-01-18T21:48:05.403Z,95.20
2019-01-18T21:51:50.121Z,95.55
2019-01-18T21:55:42.028Z,95.57
2019-01-18T21:59:37.054Z,95.87
2019-01-18T22:03:15.505Z,95.52
2019-01-18T22:07:03.196Z,95.83
2019-01-18T22:10:46.483Z,96.08
2019-01-18T22:14:41.903Z,96.50
2019-01-18T22:18:17.626Z,96.70
2019-01-18T22:21:49.958Z,96.96
2019-01-18T22:25:54.035Z,96.57
2019-01-18T22:29:43.312Z,96.81
2019-01-18T22:33:28.202Z,96.78
2019-01-18T22:37:23.373Z,96.92
2019-01-18T22:41:12.121Z,97.02
2019-01-18T22:44:39.343Z,96.74
2019-01-18T22:48:27.436Z,97.05
2019-01-18T22:52:22.374Z,97.20
2019-01-18T22:55:52.663Z,97.35
2019-01-18T22:59:43.840Z,97.31
2019-01-18T23:02:59.689Z,97.11
2019-01-18T23:06:48.866Z,97.22
2019-01-18T23:10:29.745Z,97.19
2019-01-18T23:14:10.930Z,97.07
2019-01-18T23:17:40.944Z,96.89
2019-01-18T23:21:30.131Z,96.76
2019-01-18T23:25:37.447Z,96.56
2019-01-18T23:29:16.028Z,96.41
2019-01-18T23:33:00.065Z,96.31
2019-01-18T23:36:11.456Z,96.23
2019-01-18T23:39:49.577Z,96.04
2019-01-18T23:43:44.841Z,95.70
2019-01-18T23:47:22.302Z,96.08
2019-01-18T23:50:40.685Z,96.08
2019-01-18T23:53:53.902Z,96.05
2019-01-18T23:57:42.530Z,96.12
